Terminal Aerodrome Forecast
Issued by NWS Charleston, WV

Current Version | Previous Version | Graphics & Text | Print | Product List | Glossary On
Versions: 1 2 3 4 5 6 7 8 9 10 11 12 13 14 15 16 17 18 19 20 21 22 23 24 25 26
311
FTUS41 KRLX 291130
TAFEKN
TAF
KEKN 291130Z 2912/3012 VRB03KT P6SM SHRA VCTS OVC050CB
      TEMPO 2912/2913 3SM TSRA BKN035CB
     FM291400 24004KT P6SM VCSH BKN060
     FM292000 29004KT P6SM SCT150=

USA.gov is the U.S. government's official web portal to all federal, state and local government web resources and services.